sensor_id;sensor_type;location;lat;lon;timestamp;temperature;humidity
27376;DHT22;14844;51.302;6.354;2022-09-09T00:00:16;13.60;99.90
27376;DHT22;14844;51.302;6.354;2022-09-09T00:03:16;13.60;99.90
27376;DHT22;14844;51.302;6.354;2022-09-09T00:05:56;13.70;99.90
27376;DHT22;14844;51.302;6.354;2022-09-09T00:11:20;13.80;99.90
27376;DHT22;14844;51.302;6.354;2022-09-09T00:13:52;13.80;99.90
27376;DHT22;14844;51.302;6.354;2022-09-09T00:16:28;13.80;99.90
27376;DHT22;14844;51.302;6.354;2022-09-09T00:19:15;13.70;99.90
27376;DHT22;14844;51.302;6.354;2022-09-09T00:27:35;13.40;99.90
27376;DHT22;14844;51.302;6.354;2022-09-09T00:30:21;13.40;99.90
27376;DHT22;14844;51.302;6.354;2022-09-09T00:33:10;13.40;99.90
27376;DHT22;14844;51.302;6.354;2022-09-09T00:35:40;13.30;99.90
27376;DHT22;14844;51.302;6.354;2022-09-09T00:38:28;13.30;99.90
27376;DHT22;14844;51.302;6.354;2022-09-09T00:41:00;13.30;99.90
27376;DHT22;14844;51.302;6.354;2022-09-09T00:43:32;13.20;99.90
27376;DHT22;14844;51.302;6.354;2022-09-09T00:48:47;13.20;99.90
27376;DHT22;14844;51.302;6.354;2022-09-09T00:51:29;13.20;99.90
27376;DHT22;14844;51.302;6.354;2022-09-09T00:54:05;13.10;99.90
27376;DHT22;14844;51.302;6.354;2022-09-09T00:56:38;13.20;99.90
27376;DHT22;14844;51.302;6.354;2022-09-09T01:01:53;13.20;99.90
27376;DHT22;14844;51.302;6.354;2022-09-09T01:04:29;13.30;99.90
27376;DHT22;14844;51.302;6.354;2022-09-09T01:07:09;13.40;99.90
27376;DHT22;14844;51.302;6.354;2022-09-09T01:09:45;13.50;99.90
27376;DHT22;14844;51.302;6.354;2022-09-09T01:12:16;13.40;99.90
27376;DHT22;14844;51.302;6.354;2022-09-09T01:14:49;13.30;99.90
27376;DHT22;14844;51.302;6.354;2022-09-09T01:17:19;13.30;99.90
27376;DHT22;14844;51.302;6.354;2022-09-09T01:20:06;13.30;99.90
27376;DHT22;14844;51.302;6.354;2022-09-09T01:22:44;13.20;99.90
27376;DHT22;14844;51.302;6.354;2022-09-09T01:28:21;13.20;99.90
27376;DHT22;14844;51.302;6.354;2022-09-09T01:30:48;13.10;99.90
27376;DHT22;14844;51.302;6.354;2022-09-09T01:33:16;13.10;99.90
27376;DHT22;14844;51.302;6.354;2022-09-09T01:35:52;13.00;99.90
27376;DHT22;14844;51.302;6.354;2022-09-09T01:38:20;12.90;99.90
27376;DHT22;14844;51.302;6.354;2022-09-09T01:40:46;13.00;99.90
27376;DHT22;14844;51.302;6.354;2022-09-09T01:43:13;13.00;99.90
27376;DHT22;14844;51.302;6.354;2022-09-09T01:45:40;13.10;99.90
27376;DHT22;14844;51.302;6.354;2022-09-09T01:48:07;13.00;99.90
27376;DHT22;14844;51.302;6.354;2022-09-09T01:50:33;13.00;99.90
27376;DHT22;14844;51.302;6.354;2022-09-09T01:52:59;13.00;99.90
27376;DHT22;14844;51.302;6.354;2022-09-09T01:55:30;12.90;99.90
27376;DHT22;14844;51.302;6.354;2022-09-09T01:58:51;13.00;99.90
27376;DHT22;14844;51.302;6.354;2022-09-09T02:03:56;13.00;99.90
27376;DHT22;14844;51.302;6.354;2022-09-09T02:06:30;12.90;99.90
27376;DHT22;14844;51.302;6.354;2022-09-09T02:08:57;13.00;99.90
27376;DHT22;14844;51.302;6.354;2022-09-09T02:11:27;13.00;99.90
27376;DHT22;14844;51.302;6.354;2022-09-09T02:13:56;13.00;99.90
27376;DHT22;14844;51.302;6.354;2022-09-09T02:16:50;13.00;99.90
27376;DHT22;14844;51.302;6.354;2022-09-09T02:19:23;13.00;99.90
27376;DHT22;14844;51.302;6.354;2022-09-09T02:21:53;13.00;99.90
27376;DHT22;14844;51.302;6.354;2022-09-09T02:24:20;13.10;99.90
27376;DHT22;14844;51.302;6.354;2022-09-09T02:26:48;13.10;99.90
27376;DHT22;14844;51.302;6.354;2022-09-09T02:29:19;13.10;99.90
27376;DHT22;14844;51.302;6.354;2022-09-09T02:31:47;13.10;99.90
27376;DHT22;14844;51.302;6.354;2022-09-09T02:34:17;13.10;99.90
27376;DHT22;14844;51.302;6.354;2022-09-09T02:36:45;13.00;99.90
27376;DHT22;14844;51.302;6.354;2022-09-09T02:39:11;13.10;99.90
27376;DHT22;14844;51.302;6.354;2022-09-09T02:41:39;13.10;99.90
27376;DHT22;14844;51.302;6.354;2022-09-09T02:44:12;13.00;99.90
27376;DHT22;14844;51.302;6.354;2022-09-09T02:50:00;13.10;99.90
27376;DHT22;14844;51.302;6.354;2022-09-09T02:53:17;13.30;99.90
27376;DHT22;14844;51.302;6.354;2022-09-09T02:55:58;13.20;99.90
27376;DHT22;14844;51.302;6.354;2022-09-09T02:58:26;13.30;99.90
27376;DHT22;14844;51.302;6.354;2022-09-09T03:00:52;13.30;99.90
27376;DHT22;14844;51.302;6.354;2022-09-09T03:03:19;13.30;99.90
27376;DHT22;14844;51.302;6.354;2022-09-09T03:05:45;13.20;99.90
27376;DHT22;14844;51.302;6.354;2022-09-09T03:08:12;13.20;99.90
27376;DHT22;14844;51.302;6.354;2022-09-09T03:10:38;13.20;99.90
27376;DHT22;14844;51.302;6.354;2022-09-09T03:13:04;13.20;99.90
27376;DHT22;14844;51.302;6.354;2022-09-09T03:15:31;13.20;99.90
27376;DHT22;14844;51.302;6.354;2022-09-09T03:17:58;13.10;99.90
27376;DHT22;14844;51.302;6.354;2022-09-09T03:20:26;13.20;99.90
27376;DHT22;14844;51.302;6.354;2022-09-09T03:22:52;13.10;99.90
27376;DHT22;14844;51.302;6.354;2022-09-09T03:25:18;13.10;99.90
27376;DHT22;14844;51.302;6.354;2022-09-09T03:27:44;13.10;99.90
27376;DHT22;14844;51.302;6.354;2022-09-09T03:30:10;13.10;99.90
27376;DHT22;14844;51.302;6.354;2022-09-09T03:32:36;13.20;99.90
27376;DHT22;14844;51.302;6.354;2022-09-09T03:35:02;13.20;99.90
27376;DHT22;14844;51.302;6.354;2022-09-09T03:37:27;13.20;99.90
27376;DHT22;14844;51.302;6.354;2022-09-09T03:39:53;13.30;99.90
27376;DHT22;14844;51.302;6.354;2022-09-09T03:42:20;13.30;99.90
27376;DHT22;14844;51.302;6.354;2022-09-09T03:44:46;13.40;99.90
27376;DHT22;14844;51.302;6.354;2022-09-09T03:47:19;13.40;99.90
27376;DHT22;14844;51.302;6.354;2022-09-09T03:49:45;13.50;99.90
27376;DHT22;14844;51.302;6.354;2022-09-09T03:52:11;13.50;99.90
27376;DHT22;14844;51.302;6.354;2022-09-09T03:54:36;13.60;99.90
27376;DHT22;14844;51.302;6.354;2022-09-09T03:57:03;13.60;99.90
27376;DHT22;14844;51.302;6.354;2022-09-09T03:59:28;13.60;99.90
27376;DHT22;14844;51.302;6.354;2022-09-09T04:01:54;13.60;99.90
27376;DHT22;14844;51.302;6.354;2022-09-09T04:04:20;13.60;99.90
27376;DHT22;14844;51.302;6.354;2022-09-09T04:06:46;13.70;99.90
27376;DHT22;14844;51.302;6.354;2022-09-09T04:09:13;13.80;99.90
27376;DHT22;14844;51.302;6.354;2022-09-09T04:11:39;13.80;99.90
27376;DHT22;14844;51.302;6.354;2022-09-09T04:14:04;13.80;99.90
27376;DHT22;14844;51.302;6.354;2022-09-09T04:16:32;13.90;99.90
27376;DHT22;14844;51.302;6.354;2022-09-09T04:18:58;13.90;99.90
27376;DHT22;14844;51.302;6.354;2022-09-09T04:21:25;14.10;99.90
27376;DHT22;14844;51.302;6.354;2022-09-09T04:23:51;14.10;99.90
27376;DHT22;14844;51.302;6.354;2022-09-09T04:26:17;14.20;99.90
27376;DHT22;14844;51.302;6.354;2022-09-09T04:28:43;14.20;99.90
27376;DHT22;14844;51.302;6.354;2022-09-09T04:31:14;14.30;99.90
27376;DHT22;14844;51.302;6.354;2022-09-09T04:33:40;14.30;99.90
27376;DHT22;14844;51.302;6.354;2022-09-09T04:36:06;14.30;99.90
27376;DHT22;14844;51.302;6.354;2022-09-09T04:38:32;14.30;99.90
27376;DHT22;14844;51.302;6.354;2022-09-09T04:40:57;14.30;99.90
27376;DHT22;14844;51.302;6.354;2022-09-09T04:43:23;14.30;99.90
27376;DHT22;14844;51.302;6.354;2022-09-09T04:45:51;14.30;99.90
27376;DHT22;14844;51.302;6.354;2022-09-09T04:48:17;14.20;99.90
27376;DHT22;14844;51.302;6.354;2022-09-09T04:50:42;14.20;99.90
27376;DHT22;14844;51.302;6.354;2022-09-09T04:53:08;14.20;99.90
27376;DHT22;14844;51.302;6.354;2022-09-09T04:55:35;14.20;99.90
27376;DHT22;14844;51.302;6.354;2022-09-09T04:58:05;14.30;99.90
27376;DHT22;14844;51.302;6.354;2022-09-09T05:00:31;14.30;99.90
27376;DHT22;14844;51.302;6.354;2022-09-09T05:02:57;14.30;99.90
27376;DHT22;14844;51.302;6.354;2022-09-09T05:05:23;14.30;99.90
27376;DHT22;14844;51.302;6.354;2022-09-09T05:07:48;14.30;99.90
27376;DHT22;14844;51.302;6.354;2022-09-09T05:10:15;14.30;99.90
27376;DHT22;14844;51.302;6.354;2022-09-09T05:12:41;14.40;99.90
27376;DHT22;14844;51.302;6.354;2022-09-09T05:15:07;14.40;99.90
27376;DHT22;14844;51.302;6.354;2022-09-09T05:17:33;14.40;99.90
27376;DHT22;14844;51.302;6.354;2022-09-09T05:19:59;14.40;99.90
27376;DHT22;14844;51.302;6.354;2022-09-09T05:22:24;14.40;99.90
27376;DHT22;14844;51.302;6.354;2022-09-09T05:24:50;14.40;99.90
27376;DHT22;14844;51.302;6.354;2022-09-09T05:27:20;14.40;99.90
27376;DHT22;14844;51.302;6.354;2022-09-09T05:29:46;14.40;99.90
27376;DHT22;14844;51.302;6.354;2022-09-09T05:32:12;14.40;99.90
27376;DHT22;14844;51.302;6.354;2022-09-09T05:34:39;14.40;99.90
27376;DHT22;14844;51.302;6.354;2022-09-09T05:37:04;14.50;99.90
27376;DHT22;14844;51.302;6.354;2022-09-09T05:39:30;14.50;99.90
27376;DHT22;14844;51.302;6.354;2022-09-09T05:41:56;14.50;99.90
27376;DHT22;14844;51.302;6.354;2022-09-09T05:44:22;14.50;99.90
27376;DHT22;14844;51.302;6.354;2022-09-09T05:46:50;14.50;99.90
27376;DHT22;14844;51.302;6.354;2022-09-09T05:49:16;14.60;99.90
27376;DHT22;14844;51.302;6.354;2022-09-09T05:51:41;14.60;99.90
27376;DHT22;14844;51.302;6.354;2022-09-09T05:54:09;14.70;99.90
27376;DHT22;14844;51.302;6.354;2022-09-09T05:56:34;14.80;99.90
27376;DHT22;14844;51.302;6.354;2022-09-09T05:59:01;14.80;99.90
27376;DHT22;14844;51.302;6.354;2022-09-09T06:01:29;14.90;99.90
27376;DHT22;14844;51.302;6.354;2022-09-09T06:03:55;14.90;99.90
27376;DHT22;14844;51.302;6.354;2022-09-09T06:06:23;14.90;99.90
27376;DHT22;14844;51.302;6.354;2022-09-09T06:08:54;14.90;99.90
27376;DHT22;14844;51.302;6.354;2022-09-09T06:11:29;14.90;99.90
27376;DHT22;14844;51.302;6.354;2022-09-09T06:13:56;14.90;99.90
27376;DHT22;14844;51.302;6.354;2022-09-09T06:16:24;14.80;99.90
27376;DHT22;14844;51.302;6.354;2022-09-09T06:18:50;14.80;99.90
27376;DHT22;14844;51.302;6.354;2022-09-09T06:21:18;15.00;99.90
27376;DHT22;14844;51.302;6.354;2022-09-09T06:23:44;15.10;99.90
27376;DHT22;14844;51.302;6.354;2022-09-09T06:26:16;15.30;99.90
27376;DHT22;14844;51.302;6.354;2022-09-09T06:28:49;15.40;99.90
27376;DHT22;14844;51.302;6.354;2022-09-09T06:31:18;15.40;99.90
27376;DHT22;14844;51.302;6.354;2022-09-09T06:33:48;15.70;99.90
27376;DHT22;14844;51.302;6.354;2022-09-09T06:36:16;15.80;99.90
27376;DHT22;14844;51.302;6.354;2022-09-09T06:38:42;16.00;99.90
27376;DHT22;14844;51.302;6.354;2022-09-09T06:41:09;16.10;99.90
27376;DHT22;14844;51.302;6.354;2022-09-09T06:43:35;16.10;99.90
27376;DHT22;14844;51.302;6.354;2022-09-09T06:46:04;16.10;99.90
27376;DHT22;14844;51.302;6.354;2022-09-09T06:48:31;16.10;99.90
27376;DHT22;14844;51.302;6.354;2022-09-09T06:51:05;16.10;99.90
27376;DHT22;14844;51.302;6.354;2022-09-09T06:53:32;15.80;99.90
27376;DHT22;14844;51.302;6.354;2022-09-09T06:58:50;15.60;99.90
27376;DHT22;14844;51.302;6.354;2022-09-09T07:01:19;15.70;99.90
27376;DHT22;14844;51.302;6.354;2022-09-09T07:03:49;16.10;99.90
27376;DHT22;14844;51.302;6.354;2022-09-09T07:06:27;16.30;99.90
27376;DHT22;14844;51.302;6.354;2022-09-09T07:08:58;16.50;99.90
27376;DHT22;14844;51.302;6.354;2022-09-09T07:11:26;16.60;99.90
27376;DHT22;14844;51.302;6.354;2022-09-09T07:13:53;16.80;99.90
27376;DHT22;14844;51.302;6.354;2022-09-09T07:16:20;17.10;99.90
27376;DHT22;14844;51.302;6.354;2022-09-09T07:18:48;17.20;99.90
27376;DHT22;14844;51.302;6.354;2022-09-09T07:21:16;17.20;99.90
27376;DHT22;14844;51.302;6.354;2022-09-09T07:23:42;17.10;99.90
27376;DHT22;14844;51.302;6.354;2022-09-09T07:26:13;17.10;99.90
27376;DHT22;14844;51.302;6.354;2022-09-09T07:28:39;17.10;99.90
27376;DHT22;14844;51.302;6.354;2022-09-09T07:31:06;17.20;99.90
27376;DHT22;14844;51.302;6.354;2022-09-09T07:33:33;17.20;99.90
27376;DHT22;14844;51.302;6.354;2022-09-09T07:36:06;17.20;99.90
27376;DHT22;14844;51.302;6.354;2022-09-09T07:38:39;17.20;99.90
27376;DHT22;14844;51.302;6.354;2022-09-09T07:41:09;17.40;99.90
27376;DHT22;14844;51.302;6.354;2022-09-09T07:43:40;17.50;99.90
27376;DHT22;14844;51.302;6.354;2022-09-09T07:46:09;17.60;99.90
27376;DHT22;14844;51.302;6.354;2022-09-09T07:48:35;17.60;99.90
27376;DHT22;14844;51.302;6.354;2022-09-09T07:51:10;18.00;99.90
27376;DHT22;14844;51.302;6.354;2022-09-09T07:53:39;18.30;99.90
27376;DHT22;14844;51.302;6.354;2022-09-09T07:56:11;18.40;99.90
27376;DHT22;14844;51.302;6.354;2022-09-09T07:58:38;18.70;99.90
27376;DHT22;14844;51.302;6.354;2022-09-09T08:01:09;18.90;99.90
27376;DHT22;14844;51.302;6.354;2022-09-09T08:03:35;18.90;99.90
27376;DHT22;14844;51.302;6.354;2022-09-09T08:06:05;19.20;99.90
27376;DHT22;14844;51.302;6.354;2022-09-09T08:08:32;19.50;99.90
27376;DHT22;14844;51.302;6.354;2022-09-09T08:11:17;19.60;99.90
27376;DHT22;14844;51.302;6.354;2022-09-09T08:13:44;19.80;99.90
27376;DHT22;14844;51.302;6.354;2022-09-09T08:16:11;19.70;99.90
27376;DHT22;14844;51.302;6.354;2022-09-09T08:18:37;19.30;99.90
27376;DHT22;14844;51.302;6.354;2022-09-09T08:21:07;19.30;99.90
27376;DHT22;14844;51.302;6.354;2022-09-09T08:23:34;19.30;99.90
27376;DHT22;14844;51.302;6.354;2022-09-09T08:26:31;19.00;99.90
27376;DHT22;14844;51.302;6.354;2022-09-09T08:28:59;19.00;99.90
27376;DHT22;14844;51.302;6.354;2022-09-09T08:31:36;19.20;99.90
27376;DHT22;14844;51.302;6.354;2022-09-09T08:34:03;19.50;99.90
27376;DHT22;14844;51.302;6.354;2022-09-09T08:36:32;19.80;99.90
27376;DHT22;14844;51.302;6.354;2022-09-09T08:38:59;20.00;99.90
27376;DHT22;14844;51.302;6.354;2022-09-09T08:44:55;20.00;99.90
27376;DHT22;14844;51.302;6.354;2022-09-09T08:50:02;19.80;99.90
27376;DHT22;14844;51.302;6.354;2022-09-09T08:57:52;19.40;99.90
27376;DHT22;14844;51.302;6.354;2022-09-09T09:00:19;19.30;99.90
27376;DHT22;14844;51.302;6.354;2022-09-09T09:03:16;19.50;99.90
27376;DHT22;14844;51.302;6.354;2022-09-09T09:11:04;20.20;99.90
27376;DHT22;14844;51.302;6.354;2022-09-09T09:13:41;20.10;99.90
27376;DHT22;14844;51.302;6.354;2022-09-09T09:18:46;19.60;99.90
27376;DHT22;14844;51.302;6.354;2022-09-09T09:23:58;20.00;99.90
27376;DHT22;14844;51.302;6.354;2022-09-09T09:26:30;20.30;99.90
27376;DHT22;14844;51.302;6.354;2022-09-09T09:28:59;20.60;99.90
27376;DHT22;14844;51.302;6.354;2022-09-09T09:31:26;20.90;99.90
27376;DHT22;14844;51.302;6.354;2022-09-09T09:33:56;20.90;99.90
27376;DHT22;14844;51.302;6.354;2022-09-09T09:36:24;20.90;99.90
27376;DHT22;14844;51.302;6.354;2022-09-09T09:38:59;21.10;99.90
27376;DHT22;14844;51.302;6.354;2022-09-09T09:41:35;21.30;99.90
27376;DHT22;14844;51.302;6.354;2022-09-09T09:44:03;21.20;99.90
27376;DHT22;14844;51.302;6.354;2022-09-09T09:46:30;20.90;99.90
27376;DHT22;14844;51.302;6.354;2022-09-09T09:49:00;20.70;99.90
27376;DHT22;14844;51.302;6.354;2022-09-09T09:51:28;20.30;99.90
27376;DHT22;14844;51.302;6.354;2022-09-09T09:54:26;20.20;99.90
27376;DHT22;14844;51.302;6.354;2022-09-09T09:56:48;20.30;99.90
27376;DHT22;14844;51.302;6.354;2022-09-09T09:59:21;20.20;99.90
27376;DHT22;14844;51.302;6.354;2022-09-09T10:01:47;19.80;99.90
27376;DHT22;14844;51.302;6.354;2022-09-09T10:04:14;19.60;99.90
27376;DHT22;14844;51.302;6.354;2022-09-09T10:06:41;19.50;99.90
27376;DHT22;14844;51.302;6.354;2022-09-09T10:20:45;19.60;99.90
27376;DHT22;14844;51.302;6.354;2022-09-09T10:34:57;21.50;99.90
27376;DHT22;14844;51.302;6.354;2022-09-09T10:37:41;21.30;99.90
27376;DHT22;14844;51.302;6.354;2022-09-09T10:40:22;20.90;99.90
27376;DHT22;14844;51.302;6.354;2022-09-09T10:42:52;20.20;99.90
27376;DHT22;14844;51.302;6.354;2022-09-09T10:45:21;19.90;99.90
27376;DHT22;14844;51.302;6.354;2022-09-09T10:48:09;20.00;99.90
27376;DHT22;14844;51.302;6.354;2022-09-09T10:50:50;20.20;99.90
27376;DHT22;14844;51.302;6.354;2022-09-09T10:53:21;20.50;99.90
27376;DHT22;14844;51.302;6.354;2022-09-09T10:55:53;20.60;99.90
27376;DHT22;14844;51.302;6.354;2022-09-09T10:58:23;20.60;99.90
27376;DHT22;14844;51.302;6.354;2022-09-09T11:00:57;20.70;99.90
27376;DHT22;14844;51.302;6.354;2022-09-09T11:03:28;20.60;99.90
27376;DHT22;14844;51.302;6.354;2022-09-09T11:08:26;21.00;99.90
27376;DHT22;14844;51.302;6.354;2022-09-09T11:11:25;21.30;99.90
27376;DHT22;14844;51.302;6.354;2022-09-09T11:14:05;21.20;99.90
27376;DHT22;14844;51.302;6.354;2022-09-09T11:16:46;21.00;99.90
27376;DHT22;14844;51.302;6.354;2022-09-09T11:19:29;20.90;99.90
27376;DHT22;14844;51.302;6.354;2022-09-09T11:22:00;21.30;99.90
27376;DHT22;14844;51.302;6.354;2022-09-09T11:24:33;21.40;99.90
27376;DHT22;14844;51.302;6.354;2022-09-09T11:34:56;21.90;99.90
27376;DHT22;14844;51.302;6.354;2022-09-09T11:40:26;22.60;99.90
27376;DHT22;14844;51.302;6.354;2022-09-09T11:43:13;22.30;99.90
27376;DHT22;14844;51.302;6.354;2022-09-09T11:45:41;21.80;99.90
27376;DHT22;14844;51.302;6.354;2022-09-09T11:48:28;21.60;99.90
27376;DHT22;14844;51.302;6.354;2022-09-09T11:51:04;21.30;99.90
27376;DHT22;14844;51.302;6.354;2022-09-09T11:53:32;21.20;99.90
27376;DHT22;14844;51.302;6.354;2022-09-09T11:56:09;20.90;99.90
27376;DHT22;14844;51.302;6.354;2022-09-09T11:58:44;20.50;99.90
27376;DHT22;14844;51.302;6.354;2022-09-09T12:01:45;20.00;99.90
27376;DHT22;14844;51.302;6.354;2022-09-09T12:04:30;19.70;99.90
27376;DHT22;14844;51.302;6.354;2022-09-09T12:09:40;19.40;99.90
27376;DHT22;14844;51.302;6.354;2022-09-09T12:15:02;18.90;99.90
27376;DHT22;14844;51.302;6.354;2022-09-09T12:17:32;19.00;99.90
27376;DHT22;14844;51.302;6.354;2022-09-09T12:26:07;20.30;99.90
27376;DHT22;14844;51.302;6.354;2022-09-09T12:28:55;20.60;99.90
27376;DHT22;14844;51.302;6.354;2022-09-09T12:32:00;20.60;99.90
27376;DHT22;14844;51.302;6.354;2022-09-09T12:40:20;21.10;99.90
27376;DHT22;14844;51.302;6.354;2022-09-09T12:42:46;20.80;99.90
27376;DHT22;14844;51.302;6.354;2022-09-09T12:45:20;21.00;99.90
27376;DHT22;14844;51.302;6.354;2022-09-09T12:50:26;20.80;99.90
27376;DHT22;14844;51.302;6.354;2022-09-09T12:53:04;20.70;99.90
27376;DHT22;14844;51.302;6.354;2022-09-09T12:55:35;21.00;99.90
27376;DHT22;14844;51.302;6.354;2022-09-09T12:58:02;21.20;99.90
27376;DHT22;14844;51.302;6.354;2022-09-09T13:00:31;21.40;99.90
27376;DHT22;14844;51.302;6.354;2022-09-09T13:02:58;21.80;99.90
27376;DHT22;14844;51.302;6.354;2022-09-09T13:05:38;21.80;99.90
27376;DHT22;14844;51.302;6.354;2022-09-09T13:08:09;22.30;99.90
27376;DHT22;14844;51.302;6.354;2022-09-09T13:10:38;22.50;99.90
27376;DHT22;14844;51.302;6.354;2022-09-09T13:13:13;22.40;99.90
27376;DHT22;14844;51.302;6.354;2022-09-09T13:15:39;22.40;99.90
27376;DHT22;14844;51.302;6.354;2022-09-09T13:18:11;22.60;99.90
27376;DHT22;14844;51.302;6.354;2022-09-09T13:20:37;22.70;99.90
27376;DHT22;14844;51.302;6.354;2022-09-09T13:23:03;22.60;99.90
27376;DHT22;14844;51.302;6.354;2022-09-09T13:25:29;22.30;99.90
27376;DHT22;14844;51.302;6.354;2022-09-09T13:28:03;21.70;99.90
27376;DHT22;14844;51.302;6.354;2022-09-09T13:30:33;21.50;99.90
27376;DHT22;14844;51.302;6.354;2022-09-09T13:35:50;20.80;99.90
27376;DHT22;14844;51.302;6.354;2022-09-09T13:38:17;20.50;99.90
27376;DHT22;14844;51.302;6.354;2022-09-09T13:41:05;20.30;99.90
27376;DHT22;14844;51.302;6.354;2022-09-09T13:43:36;19.80;99.90
27376;DHT22;14844;51.302;6.354;2022-09-09T13:46:04;19.60;99.90
27376;DHT22;14844;51.302;6.354;2022-09-09T13:48:31;19.50;99.90
27376;DHT22;14844;51.302;6.354;2022-09-09T13:51:04;19.30;99.90
27376;DHT22;14844;51.302;6.354;2022-09-09T13:53:32;19.10;99.90
27376;DHT22;14844;51.302;6.354;2022-09-09T13:55:58;18.90;99.90
27376;DHT22;14844;51.302;6.354;2022-09-09T13:58:25;18.20;99.90
27376;DHT22;14844;51.302;6.354;2022-09-09T14:00:52;17.30;99.90
27376;DHT22;14844;51.302;6.354;2022-09-09T14:03:19;16.70;99.90
27376;DHT22;14844;51.302;6.354;2022-09-09T14:05:45;16.30;99.90
27376;DHT22;14844;51.302;6.354;2022-09-09T14:08:23;16.10;99.90
27376;DHT22;14844;51.302;6.354;2022-09-09T14:10:48;15.90;99.90
27376;DHT22;14844;51.302;6.354;2022-09-09T14:13:14;15.90;99.90
27376;DHT22;14844;51.302;6.354;2022-09-09T14:15:40;15.80;99.90
27376;DHT22;14844;51.302;6.354;2022-09-09T14:18:08;15.70;99.90
27376;DHT22;14844;51.302;6.354;2022-09-09T14:20:34;15.70;99.90
27376;DHT22;14844;51.302;6.354;2022-09-09T14:23:00;15.60;99.90
27376;DHT22;14844;51.302;6.354;2022-09-09T14:25:25;15.60;99.90
27376;DHT22;14844;51.302;6.354;2022-09-09T14:27:51;15.60;99.90
27376;DHT22;14844;51.302;6.354;2022-09-09T14:30:17;15.80;99.90
27376;DHT22;14844;51.302;6.354;2022-09-09T14:32:42;15.80;99.90
27376;DHT22;14844;51.302;6.354;2022-09-09T14:35:08;15.80;99.90
27376;DHT22;14844;51.302;6.354;2022-09-09T14:37:34;16.00;99.90
27376;DHT22;14844;51.302;6.354;2022-09-09T14:40:00;16.20;99.90
27376;DHT22;14844;51.302;6.354;2022-09-09T14:42:25;16.50;99.90
27376;DHT22;14844;51.302;6.354;2022-09-09T14:44:52;17.00;99.90
27376;DHT22;14844;51.302;6.354;2022-09-09T14:47:17;17.60;99.90
27376;DHT22;14844;51.302;6.354;2022-09-09T14:49:43;18.20;99.90
27376;DHT22;14844;51.302;6.354;2022-09-09T14:52:08;18.80;99.90
27376;DHT22;14844;51.302;6.354;2022-09-09T14:54:34;19.30;99.90
27376;DHT22;14844;51.302;6.354;2022-09-09T14:57:00;19.80;99.90
27376;DHT22;14844;51.302;6.354;2022-09-09T14:59:25;20.30;99.90
27376;DHT22;14844;51.302;6.354;2022-09-09T15:01:52;20.90;99.90
27376;DHT22;14844;51.302;6.354;2022-09-09T15:04:18;21.20;99.90
27376;DHT22;14844;51.302;6.354;2022-09-09T15:06:43;21.50;99.90
27376;DHT22;14844;51.302;6.354;2022-09-09T15:09:13;21.70;99.90
27376;DHT22;14844;51.302;6.354;2022-09-09T15:11:39;21.70;99.90
27376;DHT22;14844;51.302;6.354;2022-09-09T15:14:06;21.30;99.90
27376;DHT22;14844;51.302;6.354;2022-09-09T15:16:32;21.20;99.90
27376;DHT22;14844;51.302;6.354;2022-09-09T15:18:59;21.10;99.90
27376;DHT22;14844;51.302;6.354;2022-09-09T15:21:27;21.00;99.90
27376;DHT22;14844;51.302;6.354;2022-09-09T15:23:54;21.20;99.90
27376;DHT22;14844;51.302;6.354;2022-09-09T15:26:19;21.20;99.90
27376;DHT22;14844;51.302;6.354;2022-09-09T15:28:46;21.60;99.90
27376;DHT22;14844;51.302;6.354;2022-09-09T15:31:14;21.30;99.90
27376;DHT22;14844;51.302;6.354;2022-09-09T15:33:40;21.50;99.90
27376;DHT22;14844;51.302;6.354;2022-09-09T15:38:45;22.50;99.90
27376;DHT22;14844;51.302;6.354;2022-09-09T15:41:11;22.70;99.90
27376;DHT22;14844;51.302;6.354;2022-09-09T15:43:37;23.50;99.90
27376;DHT22;14844;51.302;6.354;2022-09-09T15:46:21;23.60;99.90
27376;DHT22;14844;51.302;6.354;2022-09-09T15:48:51;23.30;99.90
27376;DHT22;14844;51.302;6.354;2022-09-09T15:51:17;23.80;99.90
27376;DHT22;14844;51.302;6.354;2022-09-09T15:53:44;24.80;99.90
27376;DHT22;14844;51.302;6.354;2022-09-09T15:56:10;25.90;99.90
27376;DHT22;14844;51.302;6.354;2022-09-09T15:58:36;26.60;99.90
27376;DHT22;14844;51.302;6.354;2022-09-09T16:01:06;26.30;99.90
27376;DHT22;14844;51.302;6.354;2022-09-09T16:03:35;25.50;99.90
27376;DHT22;14844;51.302;6.354;2022-09-09T16:06:03;24.70;99.90
27376;DHT22;14844;51.302;6.354;2022-09-09T16:08:34;23.70;99.90
27376;DHT22;14844;51.302;6.354;2022-09-09T16:13:33;22.00;99.90
27376;DHT22;14844;51.302;6.354;2022-09-09T16:16:00;21.70;99.90
27376;DHT22;14844;51.302;6.354;2022-09-09T16:18:25;21.60;99.90
27376;DHT22;14844;51.302;6.354;2022-09-09T16:20:54;21.40;99.90
27376;DHT22;14844;51.302;6.354;2022-09-09T16:23:20;21.10;99.90
27376;DHT22;14844;51.302;6.354;2022-09-09T16:25:56;21.20;99.90
27376;DHT22;14844;51.302;6.354;2022-09-09T16:28:22;21.10;99.90
27376;DHT22;14844;51.302;6.354;2022-09-09T16:30:48;21.20;99.90
27376;DHT22;14844;51.302;6.354;2022-09-09T16:33:15;21.10;99.90
27376;DHT22;14844;51.302;6.354;2022-09-09T16:35:41;21.00;99.90
27376;DHT22;14844;51.302;6.354;2022-09-09T16:38:07;20.70;99.90
27376;DHT22;14844;51.302;6.354;2022-09-09T16:40:36;20.50;99.90
27376;DHT22;14844;51.302;6.354;2022-09-09T16:43:05;20.40;99.90
27376;DHT22;14844;51.302;6.354;2022-09-09T16:45:44;20.40;99.90
27376;DHT22;14844;51.302;6.354;2022-09-09T16:48:11;20.30;99.90
27376;DHT22;14844;51.302;6.354;2022-09-09T16:50:36;20.10;99.90
27376;DHT22;14844;51.302;6.354;2022-09-09T16:53:02;19.90;99.90
27376;DHT22;14844;51.302;6.354;2022-09-09T16:55:31;19.70;99.90
27376;DHT22;14844;51.302;6.354;2022-09-09T16:57:57;19.40;99.90
27376;DHT22;14844;51.302;6.354;2022-09-09T17:00:23;19.20;99.90
27376;DHT22;14844;51.302;6.354;2022-09-09T17:02:48;19.20;99.90
27376;DHT22;14844;51.302;6.354;2022-09-09T17:05:14;19.20;99.90
27376;DHT22;14844;51.302;6.354;2022-09-09T17:07:40;19.10;99.90
27376;DHT22;14844;51.302;6.354;2022-09-09T17:10:06;19.00;99.90
27376;DHT22;14844;51.302;6.354;2022-09-09T17:12:32;19.00;99.90
27376;DHT22;14844;51.302;6.354;2022-09-09T17:14:58;19.00;99.90
27376;DHT22;14844;51.302;6.354;2022-09-09T17:17:26;18.80;99.90
27376;DHT22;14844;51.302;6.354;2022-09-09T17:19:52;18.60;99.90
27376;DHT22;14844;51.302;6.354;2022-09-09T17:22:18;18.50;99.90
27376;DHT22;14844;51.302;6.354;2022-09-09T17:24:46;18.20;99.90
27376;DHT22;14844;51.302;6.354;2022-09-09T17:27:14;18.20;99.90
27376;DHT22;14844;51.302;6.354;2022-09-09T17:29:39;18.10;99.90
27376;DHT22;14844;51.302;6.354;2022-09-09T17:32:05;17.90;99.90
27376;DHT22;14844;51.302;6.354;2022-09-09T17:34:32;17.80;99.90
27376;DHT22;14844;51.302;6.354;2022-09-09T17:36:58;17.80;99.90
27376;DHT22;14844;51.302;6.354;2022-09-09T17:39:24;17.70;99.90